Udine-Campoformido Air Base

LIPD · Friuli Venezia Giulia, 意大利

METAR的历史 LIPD · Udine-Campoformido Air Base

下面你可以看到过去几天的METARs。 选择年份以浏览从2007年开始的旧METAR。

2022年12月4日

时间 代码 天气 温度 能见度 天花板 METAR/SPECI
05:55
V
7 °C 10 km+ 4.000 ft 020° 020° 6 kt METAR LIPI 040455Z 02006KT 9999 RA SCT030 BKN040 07/06 Q1013
05:55
V
7 °C 10 km+ 4.000 ft 020° 020° 6 kt METAR LIPI 040455Z 02006KT 9999 RA SCT030 BKN040 07/06 Q1013
04:55
V
8 °C 10 km+ 4.000 ft 010° 010° 9 kt METAR LIPI 040355Z 01009KT 9999 SCT030 BKN040 08/05 Q1014
03:55
V
8 °C 10 km+ 4.000 ft 020° 020° 7 kt METAR LIPI 040255Z 02007KT 9999 SCT030 BKN040 08/05 Q1014 RMK OVC VIS MIN 9999 WIND THR06 06009KT WIND THR24 04007KT BLU
02:55
V
8 °C 10 km+ 4.000 ft 010° 010° 6 kt METAR LIPI 040155Z 01006KT 9999 SCT030 BKN040 08/06 Q1014
01:55
V
8 °C 10 km+ 3.500 ft 010° 010° 7 kt METAR LIPI 040055Z 01007KT 9999 SCT030 BKN035 08/06 Q1015
00:55
V
8 °C 10 km+ 3.000 ft 020° 020° 8 kt METAR LIPI 032355Z 02008KT 9999 -RA SCT020 BKN030 08/06 Q1016 RMK OVC VIS MIN 9999 WIND THR06 06010KT WIND THR24 03008KT BLU

2022年12月3日

时间 代码 天气 温度 能见度 天花板 METAR/SPECI
23:55
M
8 °C 10 km+ 2.000 ft 020° 020° 8 kt METAR LIPI 032255Z 02008KT 9999 -RA SCT015 BKN020 08/05 Q1016 RMK OVC VIS MIN 9999 WIND THR06 06009KT WIND THR24 04009KT WHT
22:55
M
7 °C 10 km+ 2.000 ft 020° 020° 8 kt METAR LIPI 032155Z 02008KT 9999 SCT015 BKN020 07/07 Q1016 RMK OVC VIS MIN 9999 WIND THR06 05010KT WIND THR24 04009KT WHT
21:55
M
7 °C 10 km+ 2.000 ft 020° 020° 8 kt METAR LIPI 032055Z 02008KT 9999 -RA SCT015 BKN020 07/05 Q1016
20:55
V
7 °C 10 km+ 3.000 ft 020° 020° 7 kt METAR LIPI 031955Z 02007KT 9999 -RA SCT020 BKN030 07/05 Q1017
19:55
M
7 °C 10 km+ 2.500 ft 020° 020° 6 kt METAR LIPI 031855Z 02006KT 9999 SCT018 BKN025 07/06 Q1017
18:55
M
8 °C 10 km+ 2.500 ft 360° 360° 5 kt METAR LIPI 031755Z 36005KT 9999 -RA SCT018 BKN025 08/06 Q1017
17:55
M
8 °C 10 km+ 2.500 ft 020° 020° 6 kt METAR LIPI 031655Z 02006KT 9999 BKN025 08/06 Q1017
16:55
M
8 °C 10 km+ 2.500 ft 010° 010° 6 kt METAR LIPI 031555Z 01006KT 9999 BKN025 SCT040 08/06 Q1017
15:55
V
8 °C 10 km+ - 010° 010° 6 kt METAR LIPI 031455Z 01006KT 9999 SCT025 SCT040 08/06 Q1017
14:55
V
8 °C 10 km+ - 010° 010° 6 kt METAR LIPI 031355Z 01006KT 9999 SCT030 SCT060 08/06 Q1017
13:55
V
8 °C 9 km 3.000 ft 020° 020° 7 kt METAR LIPI 031255Z 02007KT 9000 -RA BKN030 SCT050 08/06 Q1017
12:55
V
8 °C 10 km+ 5.000 ft 020° 020° 7 kt METAR LIPI 031155Z 02007KT 9999 -RA SCT030 BKN050 08/06 Q1018 RMK OVC VIS MIN 9999 WIND THR06 06009KT WIND THR24 04008KT BLU
11:55
V
8 °C 10 km+ 6.000 ft 020° 020° 6 kt METAR LIPI 031055Z 02006KT 9999 -RA SCT040 BKN060 08/05 Q1018 RMK OVC VIS MIN 9999 WIND THR06 05008KT WIND THR24 04006KT BLU
10:55
V
8 °C 10 km+ 5.000 ft 360° 360° 5 kt METAR LIPI 030955Z 36005KT 9999 -RA SCT035 BKN050 08/06 Q1018
09:55
V
7 °C 10 km+ 5.000 ft 020° 020° 5 kt METAR LIPI 030855Z 02005KT 9999 -RA SCT035 BKN050 07/05 Q1018 RMK OVC VIS MIN 9999 WIND THR06 05007KT WIND THR24 03005KT BLU
08:55
V
6 °C 10 km+ 6.000 ft 010° 010° 5 kt METAR LIPI 030755Z 01005KT 9999 -DZ SCT040 BKN060 06/04 Q1018 RMK OVC VIS MIN 9999 WIND THR06 06005KT WIND THR24 03006KT BLU
07:55
V
6 °C 10 km+ 10.000 ft 030° 030° 4 kt METAR LIPI 030655Z 03004KT 9999 FEW050 SCT060 BKN100 06/03 Q1018
06:55
V
6 °C 10 km+ 6.000 ft 010° 010° 5 kt METAR LIPI 030555Z 01005KT 9999 SCT050 BKN060 06/03 Q1018 RMK OVC VIS MIN 9999 WIND THR06 05006KT WIND THR24 03005KT BLU
05:55
V
6 °C 10 km+ 8.000 ft 030° 030° 4 kt METAR LIPI 030455Z 03004KT 9999 SCT050 SCT060 BKN080 06/04 Q1018
04:55
V
6 °C 10 km+ 8.000 ft 030° 030° 5 kt METAR LIPI 030355Z 03005KT 9999 SCT050 SCT060 BKN080 06/04 Q1018
03:55
V
7 °C 10 km+ 8.000 ft 020° 020° 5 kt METAR LIPI 030255Z 02005KT 9999 SCT060 BKN080 07/04 Q1018
02:55
V
6 °C 10 km+ 8.000 ft 010° 010° 4 kt METAR LIPI 030155Z 01004KT 9999 FEW035 SCT060 BKN080 06/04 Q1019
01:55
V
5 °C 10 km+ 8.000 ft 010° 010° 5 kt METAR LIPI 030055Z 01005KT 9999 FEW035 SCT060 BKN080 05/04 Q1019
00:55
V
5 °C 10 km+ 8.000 ft 350° 350° 3 kt METAR LIPI 022355Z 35003KT 9999 FEW035 SCT060 BKN080 05/04 Q1019 RMK OVC VIS MIN 9999 WIND THR06 04005KT WIND THR24 03003KT BLU

2022年12月2日

时间 代码 天气 温度 能见度 天花板 METAR/SPECI
23:55
V
6 °C 10 km+ 7.000 ft 340° 340° 4 kt METAR LIPI 022255Z 34004KT 9999 FEW030 SCT040 BKN070 06/04 Q1019 RMK OVC VIS MIN 9999 WIND THR06 02006KT WIND THR24 35004KT BLU
22:55
V
6 °C 10 km+ 5.000 ft 250° 250° 4 kt METAR LIPI 022155Z 25004KT 9999 SCT035 BKN050 06/04 Q1020
21:55
V
6 °C 10 km+ 5.000 ft 020° 020° 6 kt METAR LIPI 022055Z 02006KT 9999 SCT035 BKN050 06/04 Q1019 RMK OVC VIS MIN 9999 WIND THR06 05007KT WIND THR24 04008KT BLU
20:55
V
6 °C 10 km+ 4.000 ft 030° 030° 8 kt METAR LIPI 021955Z 03008KT 9999 -RA SCT030 BKN040 06/02 Q1019
19:55
V
7 °C 10 km+ 5.000 ft 030° 030° 6 kt METAR LIPI 021855Z 03006KT 9999 SCT040 BKN050 07/02 Q1019 RMK OVC VIS MIN 9999 WIND THR06 07007KT WIND THR24 05007KT BLU
18:55
V
6 °C 10 km+ 6.000 ft 040° 040° 4 kt METAR LIPI 021755Z 04004KT 9999 SCT040 BKN060 06/02 Q1019 RMK OVC VIS MIN 9999 WIND THR06 07005KT WIND THR24 05006KT BLU
17:55
V
6 °C 10 km+ 6.000 ft 030° 030° 4 kt METAR LIPI 021655Z 03004KT 9999 SCT040 BKN060 06/02 Q1019
16:55
V
7 °C 10 km+ 5.000 ft 010° 010° 4 kt METAR LIPI 021555Z 01004KT 9999 SCT030 BKN050 07/03 Q1018 RMK OVC VIS MIN 9999 WIND THR06 05005KT WIND THR24 03004KT BLU
15:55
V
7 °C 10 km+ 5.000 ft 030° 030° 3 kt METAR LIPI 021455Z 03003KT 9999 SCT030 BKN050 07/03 Q1018 RMK OVC VIS MIN 9999 WIND THR06 07004KT WIND THR24 05004KT BLU
14:55
V
8 °C 10 km+ 5.000 ft 070° 070° 6 kt METAR LIPI 021355Z 07006KT 9999 SCT030 BKN050 08/02 Q1018
13:55
V
8 °C 10 km+ 5.000 ft 020° 020° 4 kt METAR LIPI 021255Z 02004KT 9999 -RA SCT030 BKN050 08/03 Q1018
12:55
V
8 °C 10 km+ 6.000 ft 040° 040° 4 kt METAR LIPI 021155Z 04004KT 9999 SCT040 BKN060 08/02 Q1019
11:55
V
8 °C 10 km+ 4.000 ft 040° 040° 6 kt METAR LIPI 021055Z 04006KT 9999 SCT030 BKN040 08/02 Q1019 RMK OVC VIS MIN 9999 WIND THR06 07007KT WIND THR24 05006KT BLU
10:55
V
7 °C 10 km+ 4.000 ft 030° 030° 7 kt METAR LIPI 020955Z 03007KT 9999 FEW030 BKN040 07/02 Q1019 RMK BKN VIS MIN 9999 WIND THR06 07009KT WIND THR24 05007KT BLU
09:55
V
7 °C 10 km+ 4.000 ft 020° 020° 6 kt METAR LIPI 020855Z 02006KT 9999 SCT030 BKN040 07/03 Q1019
08:55
V
6 °C 10 km+ 4.000 ft 020° 020° 7 kt METAR LIPI 020755Z 02007KT 9999 SCT030 BKN040 06/03 Q1019
07:55
V
6 °C 10 km+ 4.000 ft 020° 020° 8 kt METAR LIPI 020655Z 02008KT 9999 SCT030 BKN040 06/03 Q1018
06:55
V
6 °C 8 km 4.000 ft 010° 010° 7 kt METAR LIPI 020555Z 01007KT 8000 -RA SCT020 BKN040 06/03 Q1019 RMK OVC VIS MIN 8000 WIND THR06 04009KT WIND THR24 03007KT BLU
05:55
M
6 °C 6 km 4.000 ft 050° 050° 8 kt METAR LIPI 020455Z 05008KT 6000 SCT030 BKN040 06/04 Q1019 RMK OVC VIS MIN 6000 WIND THR06 05008KT WIND THR24 04006KT WHT
04:55
M
6 °C 6 km 4.000 ft 020° 020° 7 kt METAR LIPI 020355Z 02007KT 6000 -RA SCT020 BKN040 06/05 Q1019
03:55
V
6 °C 8 km 4.000 ft 040° 040° 3 kt METAR LIPI 020255Z 04003KT 8000 -RA SCT020 BKN040 06/04 Q1019
02:55
V
6 °C 8 km 4.000 ft 060° 060° 3 kt METAR LIPI 020155Z 06003KT 8000 -RA SCT020 BKN040 06/04 Q1018
01:55
V
6 °C 8 km 4.000 ft 090° 090° 5 kt METAR LIPI 020055Z 09005KT 8000 -RA SCT020 BKN040 06/05 Q1019
00:55
V
6 °C 8 km 3.000 ft 320° 320° 1 kt METAR LIPI 012355Z 32001KT 8000 -RA SCT020 BKN030 06/04 Q1019

2022年12月1日

时间 代码 天气 温度 能见度 天花板 METAR/SPECI
23:55
V
6 °C 10 km+ 4.000 ft 030° 030° 2 kt METAR LIPI 012255Z 03002KT 9999 -RA SCT020 BKN040 06/04 Q1019
22:55
V
6 °C 10 km+ 4.000 ft 070° 070° 3 kt METAR LIPI 012155Z 07003KT 9999 -RA SCT030 BKN040 06/05 Q1019
21:55
V
6 °C 10 km+ 4.000 ft 050° 050° 6 kt METAR LIPI 012055Z 05006KT 9999 -RA SCT030 BKN040 06/05 Q1019
20:55
V
8 °C 10 km+ 5.000 ft 040° 040° 9 kt METAR LIPI 011955Z 04009KT 9999 -RA SCT040 BKN050 08/04 Q1018 RMK OVC VIS MIN 9999 WIND THR06 07009KT WIND THR24 06008KT BLU
19:55
V
9 °C 10 km+ - 050° 050° 10 kt METAR LIPI 011855Z 05010KT 9999 SCT050 SCT060 09/03 Q1017 RMK BKN VIS MIN 9999 WIND THR06 08010KT WIND THR24 06013KT BLU
18:55
V
9 °C 10 km+ 6.000 ft 040° 040° 10 kt METAR LIPI 011755Z 04010KT 9999 FEW050 BKN060 09/03 Q1017
17:55
V
9 °C 10 km+ 6.000 ft 050° 050° 7 kt METAR LIPI 011655Z 05007KT 9999 BKN060 SCT070 09/03 Q1017 RMK BKN VIS MIN 9999 WIND THR06 09008KT WIND THR24 07007KT BLU
16:55
V
10 °C 10 km+ 6.000 ft 060° 060° 11 kt METAR LIPI 011555Z 06011KT 9999 BKN060 SCT070 10/02 Q1017 RMK BKN VIS MIN 9999 WIND THR06 10011KT WIND THR24 07011KT BLU
15:55
V
10 °C 10 km+ 6.000 ft 050° 050° 8 kt METAR LIPI 011455Z 05008KT 9999 BKN060 SCT070 10/03 Q1016
14:55
V
10 °C 10 km+ 6.000 ft 060° 060° 12 kt METAR LIPI 011355Z 06012KT 9999 BKN060 SCT070 10/03 Q1016
13:55
V
11 °C 10 km+ - 060° 060° 11 kt METAR LIPI 011255Z 06011KT 9999 FEW060 SCT070 11/03 Q1017
12:55
V
11 °C 10 km+ - 050° 050° 13 kt METAR LIPI 011155Z 05013KT 9999 SCT070 11/03 Q1017
11:55
V
11 °C 10 km+ - 050° 050° 11 kt METAR LIPI 011055Z 05011KT 9999 FEW070 11/03 Q1017
10:55
V
11 °C 10 km+ - 050° 050° 14 kt METAR LIPI 010955Z 05014KT 9999 FEW070 11/02 Q1018 RMK SCT SCT200 VIS MIN 9999 WIND THR06 08013KT WIND THR24 05015KT BLU

我们和第三方通过cookies跟踪您在我们网站上的互联网行为。如果你继续,我们认为你同意我们的饼干政策